createdAt,value
2023-02-21T00:01:13.524Z,101006.69
2023-02-21T00:03:59.787Z,101018.63
2023-02-21T00:06:45.967Z,100990.91
2023-02-21T00:09:32.224Z,100992.13
2023-02-21T00:12:18.436Z,101004.97
2023-02-21T00:15:04.703Z,101018.97
2023-02-21T00:17:50.872Z,100998.78
2023-02-21T00:20:37.512Z,100993.91
2023-02-21T00:23:23.726Z,101017.59
2023-02-21T00:26:09.820Z,100983.75
2023-02-21T00:28:56.034Z,100999.56
2023-02-21T00:31:42.284Z,101046.94
2023-02-21T00:34:28.495Z,101030.38
2023-02-21T00:37:14.566Z,101016.19
2023-02-21T00:40:00.914Z,101006.53
2023-02-21T00:42:47.034Z,100998.41
2023-02-21T00:45:33.400Z,100989.78
2023-02-21T00:48:19.734Z,101003.13
2023-02-21T00:51:06.360Z,100980.66
2023-02-21T00:53:52.511Z,100985.00
2023-02-21T00:56:39.060Z,101012.72
2023-02-21T00:59:25.309Z,100997.69
2023-02-21T01:02:11.590Z,100978.19
2023-02-21T01:04:57.845Z,100981.06
2023-02-21T01:07:44.100Z,100965.72
2023-02-21T01:10:30.226Z,100989.03
2023-02-21T01:13:16.439Z,100969.66
2023-02-21T01:16:03.597Z,100980.13
2023-02-21T01:18:49.889Z,100982.69
2023-02-21T01:21:37.978Z,100981.91
2023-02-21T01:24:27.557Z,100968.91
2023-02-21T01:27:13.611Z,100954.91
2023-02-21T01:29:59.847Z,100939.63
2023-02-21T01:32:45.984Z,100981.38
2023-02-21T01:35:32.319Z,100938.41
2023-02-21T01:38:18.946Z,100971.81
2023-02-21T01:41:08.361Z,100972.91
2023-02-21T01:43:54.745Z,100957.75
2023-02-21T01:46:41.030Z,100982.28
2023-02-21T01:49:35.872Z,100948.81
2023-02-21T01:52:24.370Z,100929.84
2023-02-21T01:55:14.027Z,100940.56
2023-02-21T01:58:04.694Z,100953.50
2023-02-21T02:00:54.597Z,100948.22
2023-02-21T02:03:40.809Z,100956.34
2023-02-21T02:06:33.083Z,100960.69
2023-02-21T02:09:36.267Z,100937.19
2023-02-21T02:12:34.892Z,100946.28
2023-02-21T02:15:18.674Z,100929.66
2023-02-21T02:18:06.352Z,100963.00
2023-02-21T02:20:49.026Z,100944.84
2023-02-21T02:23:52.924Z,100955.84
2023-02-21T02:27:04.512Z,100935.91
2023-02-21T02:30:22.187Z,100958.50
2023-02-21T02:33:31.841Z,100927.84
2023-02-21T02:36:44.412Z,100935.47
2023-02-21T02:39:44.306Z,100903.53
2023-02-21T02:42:38.833Z,100939.09
2023-02-21T02:45:20.906Z,100942.44
2023-02-21T02:47:57.164Z,100899.78
2023-02-21T02:50:27.799Z,100947.31
2023-02-21T02:53:01.389Z,100947.63
2023-02-21T02:55:55.762Z,100962.47
2023-02-21T02:58:29.464Z,100958.69
2023-02-21T03:01:35.848Z,100942.25
2023-02-21T03:05:06.701Z,100935.34
2023-02-21T03:08:38.988Z,100925.75
2023-02-21T03:11:22.889Z,100942.22
2023-02-21T03:13:57.920Z,100937.66
2023-02-21T03:16:50.634Z,100929.81
2023-02-21T03:19:25.264Z,100930.03
2023-02-21T03:21:59.757Z,100927.41
2023-02-21T03:24:28.355Z,100938.69
2023-02-21T03:27:02.282Z,100838.31
2023-02-21T03:29:56.309Z,100914.69
2023-02-21T03:32:36.200Z,100930.22
2023-02-21T03:35:06.114Z,100924.69
2023-02-21T03:37:40.638Z,100952.94
2023-02-21T03:40:25.850Z,100874.34
2023-02-21T03:42:56.432Z,100935.97
2023-02-21T03:45:25.296Z,100928.84
2023-02-21T03:48:30.939Z,100958.28
2023-02-21T03:51:05.392Z,100939.81
2023-02-21T03:53:37.518Z,100928.81
2023-02-21T03:56:06.956Z,100941.03
2023-02-21T03:58:56.910Z,100940.84
2023-02-21T04:01:24.798Z,100955.13
2023-02-21T04:03:54.381Z,100975.38
2023-02-21T04:06:22.825Z,100921.84
2023-02-21T04:08:52.222Z,100961.78
2023-02-21T04:11:22.256Z,100919.13
2023-02-21T04:13:52.885Z,100923.78
2023-02-21T04:16:20.627Z,100956.91
2023-02-21T04:18:51.072Z,100958.41
2023-02-21T04:21:20.076Z,100926.47
2023-02-21T04:23:49.233Z,100955.47
2023-02-21T04:26:20.892Z,100926.69
2023-02-21T04:28:52.989Z,100893.25
2023-02-21T04:31:21.207Z,100942.53
2023-02-21T04:33:54.921Z,100955.38
2023-02-21T04:36:30.810Z,100949.78
2023-02-21T04:38:58.604Z,100935.47
2023-02-21T04:41:26.326Z,100940.59
2023-02-21T04:43:54.114Z,100916.16
2023-02-21T04:46:21.998Z,100937.03
2023-02-21T04:48:52.707Z,100951.19
2023-02-21T04:51:24.456Z,100933.44
2023-02-21T04:54:39.858Z,100902.97
2023-02-21T04:57:07.539Z,100918.28
2023-02-21T04:59:35.094Z,100946.94
2023-02-21T05:02:03.075Z,100958.47
2023-02-21T05:04:30.711Z,100966.22
2023-02-21T05:07:01.843Z,100924.16
2023-02-21T05:09:29.549Z,100956.59
2023-02-21T05:11:57.358Z,100974.34
2023-02-21T05:14:25.031Z,100972.75
2023-02-21T05:16:52.733Z,100947.88
2023-02-21T05:20:47.075Z,100926.91
2023-02-21T05:23:17.086Z,100934.81
2023-02-21T05:25:45.445Z,100927.97
2023-02-21T05:28:13.249Z,100967.53
2023-02-21T05:30:41.664Z,100952.94
2023-02-21T05:33:11.429Z,100980.88
2023-02-21T05:35:39.144Z,100973.72
2023-02-21T05:38:06.748Z,100963.47
2023-02-21T05:40:34.667Z,100960.78
2023-02-21T05:43:02.309Z,100951.22
2023-02-21T05:45:30.074Z,100971.91
2023-02-21T05:48:00.296Z,100979.81
2023-02-21T05:50:29.624Z,100974.59
2023-02-21T05:52:59.372Z,100990.47
2023-02-21T05:55:27.455Z,100952.56
2023-02-21T05:57:55.687Z,100992.69
2023-02-21T06:00:28.665Z,100982.75
2023-02-21T06:02:57.138Z,100953.69
2023-02-21T06:05:25.409Z,101030.34
2023-02-21T06:07:53.943Z,101016.88
2023-02-21T06:10:21.571Z,101023.69
2023-02-21T06:12:49.197Z,101027.28
2023-02-21T06:15:16.871Z,100961.66
2023-02-21T06:17:45.025Z,100990.22
2023-02-21T06:20:16.703Z,100980.16
2023-02-21T06:22:44.609Z,101010.13
2023-02-21T06:25:12.272Z,101011.00
2023-02-21T06:27:39.995Z,101001.56
2023-02-21T06:30:08.713Z,101004.44
2023-02-21T06:32:36.499Z,101022.38
2023-02-21T06:35:04.768Z,101013.84
2023-02-21T06:37:32.548Z,100987.72
2023-02-21T06:40:00.490Z,101012.22
2023-02-21T06:42:29.895Z,101001.28
2023-02-21T06:44:57.523Z,101025.91
2023-02-21T06:47:25.147Z,101038.38
2023-02-21T06:49:52.875Z,101030.63
2023-02-21T06:52:21.608Z,101046.03
2023-02-21T06:54:52.561Z,101061.44
2023-02-21T06:57:20.362Z,101042.78
2023-02-21T06:59:47.967Z,101004.53
2023-02-21T07:02:19.235Z,101041.84
2023-02-21T07:04:49.819Z,101022.41
2023-02-21T07:07:28.017Z,100939.03
2023-02-21T07:10:06.553Z,101059.44
2023-02-21T07:12:40.008Z,101018.28
2023-02-21T07:15:13.197Z,100939.88
2023-02-21T07:17:41.815Z,101004.88
2023-02-21T07:20:13.592Z,101069.13
2023-02-21T07:22:41.224Z,101071.94
2023-02-21T07:25:08.831Z,101081.81
2023-02-21T07:27:38.740Z,101071.69
2023-02-21T07:30:07.735Z,101049.00
2023-02-21T07:32:35.346Z,101064.69
2023-02-21T07:35:04.198Z,101085.41
2023-02-21T07:37:32.122Z,101083.69
2023-02-21T07:40:00.060Z,101058.41
2023-02-21T07:42:27.909Z,101087.88
2023-02-21T07:44:59.041Z,101093.44
2023-02-21T07:47:27.742Z,101066.03
2023-02-21T07:49:55.481Z,101103.19
2023-02-21T07:52:23.457Z,101080.50
2023-02-21T07:54:51.178Z,101115.78
2023-02-21T07:57:19.324Z,101079.47
2023-02-21T07:59:50.643Z,101098.41
2023-02-21T08:02:39.921Z,101060.84
2023-02-21T08:05:09.145Z,101056.09
2023-02-21T08:07:36.916Z,101057.19
2023-02-21T08:10:05.005Z,101112.97
2023-02-21T08:12:32.820Z,101126.53
2023-02-21T08:15:00.443Z,101127.72
2023-02-21T08:17:28.229Z,101127.78
2023-02-21T08:19:55.874Z,101136.84
2023-02-21T08:22:23.585Z,101115.91
2023-02-21T08:24:51.472Z,101151.19
2023-02-21T08:27:19.142Z,101141.34
2023-02-21T08:29:51.193Z,101109.25
2023-02-21T08:32:19.903Z,101145.13
2023-02-21T08:34:51.697Z,101144.09
2023-02-21T08:37:22.245Z,101102.59
2023-02-21T08:39:57.452Z,101142.78
2023-02-21T08:42:31.536Z,101038.84
2023-02-21T08:44:59.376Z,101101.13
2023-02-21T08:47:27.178Z,101077.56
2023-02-21T08:49:55.037Z,101152.50
2023-02-21T08:52:22.728Z,101156.53
2023-02-21T08:54:50.387Z,101159.47
2023-02-21T09:00:39.357Z,101137.44
2023-02-21T09:03:08.044Z,101172.56
2023-02-21T09:05:37.001Z,101044.16
2023-02-21T09:08:05.340Z,101150.50
2023-02-21T09:10:38.160Z,101151.81
2023-02-21T09:13:09.001Z,101181.66
2023-02-21T09:15:36.732Z,101185.81
2023-02-21T09:18:04.756Z,101176.69
2023-02-21T09:20:32.878Z,101150.75
2023-02-21T09:23:00.822Z,101207.72
2023-02-21T09:25:29.102Z,101164.75
2023-02-21T09:28:00.537Z,101065.66
2023-02-21T09:30:29.719Z,101105.25
2023-02-21T09:32:58.481Z,101171.31
2023-02-21T09:35:29.484Z,101116.84
2023-02-21T09:38:03.809Z,101111.91
2023-02-21T09:41:03.788Z,101154.34
2023-02-21T09:43:39.449Z,101094.63
2023-02-21T09:46:14.807Z,101118.81
2023-02-21T09:48:44.064Z,101127.47
2023-02-21T09:51:14.607Z,101224.47
2023-02-21T09:53:46.267Z,101144.38
2023-02-21T09:56:21.636Z,101222.03
2023-02-21T09:58:49.994Z,101179.19
2023-02-21T10:01:56.568Z,101234.66
2023-02-21T10:04:33.464Z,101225.09
2023-02-21T10:07:10.674Z,101232.59
2023-02-21T10:09:52.321Z,101107.47
2023-02-21T10:12:45.067Z,101119.13
2023-02-21T10:15:44.046Z,101234.28
2023-02-21T10:19:23.077Z,101201.75
2023-02-21T10:22:08.486Z,101022.84
2023-02-21T10:24:53.125Z,101246.50
2023-02-21T10:27:36.970Z,101244.09
2023-02-21T10:30:11.921Z,101196.53
2023-02-21T10:32:40.627Z,101247.19
2023-02-21T10:35:12.113Z,101180.84
2023-02-21T10:37:51.387Z,101076.28
2023-02-21T10:40:38.003Z,101183.63
2023-02-21T10:43:17.926Z,101248.66
2023-02-21T10:45:58.422Z,101173.88
2023-02-21T10:48:43.124Z,101236.66
2023-02-21T10:51:15.475Z,101267.41
2023-02-21T10:53:47.466Z,101166.81
2023-02-21T10:56:15.342Z,101246.41
2023-02-21T10:59:06.725Z,101243.06
2023-02-21T11:01:45.706Z,101246.50
2023-02-21T11:04:28.512Z,101247.00
2023-02-21T11:07:11.712Z,101253.22
2023-02-21T11:09:42.534Z,101245.91
2023-02-21T11:12:16.900Z,101252.78
2023-02-21T11:15:15.674Z,101223.19
2023-02-21T11:17:45.694Z,101226.88
2023-02-21T11:20:23.490Z,101228.53
2023-02-21T11:22:51.713Z,101260.63
2023-02-21T11:25:32.938Z,101067.31
2023-02-21T11:28:13.021Z,101239.47
2023-02-21T11:31:15.417Z,101253.09
2023-02-21T11:34:00.334Z,101188.91
2023-02-21T11:36:38.923Z,101239.16
2023-02-21T11:39:18.719Z,101237.66
2023-02-21T11:41:57.009Z,101228.19
2023-02-21T11:44:42.380Z,101079.66
2023-02-21T11:47:29.114Z,101147.69
2023-02-21T11:50:25.386Z,101226.00
2023-02-21T11:53:00.142Z,101236.13
2023-02-21T11:55:28.419Z,101210.44
2023-02-21T11:58:26.454Z,101178.09
2023-02-21T12:01:07.454Z,101192.03
2023-02-21T12:04:06.111Z,101199.88
2023-02-21T12:07:17.073Z,101175.88
2023-02-21T12:10:38.648Z,101208.22
2023-02-21T12:14:01.350Z,101212.78
2023-02-21T12:17:15.066Z,101209.28
2023-02-21T12:20:00.832Z,101224.84
2023-02-21T12:23:23.891Z,101221.31
2023-02-21T12:26:32.646Z,101223.94
2023-02-21T12:29:52.513Z,101216.50
2023-02-21T12:33:03.570Z,101217.09
2023-02-21T12:36:17.447Z,101132.41
2023-02-21T12:39:02.048Z,101219.53
2023-02-21T12:41:58.688Z,101241.19
2023-02-21T12:45:22.618Z,101120.69
2023-02-21T12:48:27.441Z,101215.63
2023-02-21T12:51:25.330Z,101140.16
2023-02-21T12:54:07.523Z,101158.47
2023-02-21T12:56:53.190Z,101185.00
2023-02-21T12:59:55.484Z,101149.50
2023-02-21T13:02:46.282Z,101214.84
2023-02-21T13:05:26.102Z,101149.41
2023-02-21T13:08:14.991Z,101114.47
2023-02-21T13:11:00.772Z,101182.78
2023-02-21T13:13:35.662Z,101112.09
2023-02-21T13:16:18.157Z,101193.72
2023-02-21T13:19:02.333Z,101163.06
2023-02-21T13:22:46.321Z,101205.78
2023-02-21T13:26:16.216Z,101205.91
2023-02-21T13:28:45.890Z,101191.69
2023-02-21T13:31:39.227Z,101157.97
2023-02-21T13:34:19.071Z,101111.69
2023-02-21T13:36:49.601Z,101078.59
2023-02-21T13:39:32.366Z,101182.66
2023-02-21T13:42:16.882Z,101188.34
2023-02-21T13:45:20.455Z,101141.41
2023-02-21T13:48:01.897Z,101187.66
2023-02-21T13:50:39.303Z,101205.56
2023-02-21T13:53:33.827Z,101205.09
2023-02-21T13:56:07.734Z,101203.53
2023-02-21T13:58:38.088Z,101200.75
2023-02-21T14:01:44.310Z,101214.16
2023-02-21T14:05:09.619Z,101196.94
2023-02-21T14:07:47.839Z,101206.19
2023-02-21T14:10:44.271Z,101195.75
2023-02-21T14:13:52.100Z,101217.97
2023-02-21T14:16:36.979Z,101201.16
2023-02-21T14:19:22.420Z,101204.84
2023-02-21T14:22:03.252Z,101099.34
2023-02-21T14:24:38.190Z,101186.84
2023-02-21T14:27:37.023Z,101183.75
2023-02-21T14:30:11.152Z,101203.59
2023-02-21T14:32:44.243Z,101193.97
2023-02-21T14:35:24.404Z,101205.19
2023-02-21T14:38:03.340Z,101212.38
2023-02-21T14:41:05.322Z,101201.63
2023-02-21T14:44:01.506Z,101218.47
2023-02-21T14:47:12.972Z,101211.22
2023-02-21T14:50:21.405Z,101196.69
2023-02-21T14:53:36.442Z,101152.84
2023-02-21T14:56:16.352Z,101205.94
2023-02-21T14:59:25.112Z,101209.97
2023-02-21T15:03:03.386Z,101213.50
2023-02-21T15:05:42.408Z,101211.63
2023-02-21T15:08:22.117Z,101195.31
2023-02-21T15:10:56.609Z,101156.06
2023-02-21T15:13:34.649Z,101180.31
2023-02-21T15:16:12.125Z,101220.13
2023-02-21T15:19:04.144Z,101202.84
2023-02-21T15:21:51.388Z,101089.63
2023-02-21T15:24:20.441Z,101120.56
2023-02-21T15:27:13.724Z,101167.91
2023-02-21T15:29:41.592Z,101215.06
2023-02-21T15:32:30.092Z,101205.53
2023-02-21T15:34:58.533Z,101144.97
2023-02-21T15:37:39.804Z,101121.72
2023-02-21T15:40:25.349Z,101030.72
2023-02-21T15:42:56.488Z,101264.38
2023-02-21T15:45:32.053Z,101224.22
2023-02-21T15:48:01.106Z,101202.34
2023-02-21T15:50:45.288Z,101155.72
2023-02-21T15:53:22.319Z,101237.28
2023-02-21T15:55:52.662Z,101201.22
2023-02-21T15:58:27.585Z,101241.34
2023-02-21T16:01:11.752Z,101217.97
2023-02-21T16:03:46.951Z,101231.69
2023-02-21T16:06:25.412Z,101249.91
2023-02-21T16:09:04.359Z,101250.13
2023-02-21T16:12:04.972Z,101241.94
2023-02-21T16:15:05.829Z,101209.31
2023-02-21T16:17:37.732Z,101237.28
2023-02-21T16:20:19.260Z,101245.78
2023-02-21T16:23:07.191Z,101227.63
2023-02-21T16:25:35.829Z,101249.00
2023-02-21T16:28:13.068Z,101249.97
2023-02-21T16:30:41.217Z,101263.41
2023-02-21T16:33:13.959Z,101256.91
2023-02-21T16:35:42.801Z,101260.19
2023-02-21T16:38:18.273Z,101225.56
2023-02-21T16:40:49.994Z,101252.53
2023-02-21T16:43:24.596Z,101268.75
2023-02-21T16:45:57.890Z,101212.91
2023-02-21T16:48:33.475Z,101244.50
2023-02-21T16:51:14.025Z,101163.19
2023-02-21T16:53:42.128Z,101262.56
2023-02-21T16:56:09.851Z,101238.78
2023-02-21T16:58:48.680Z,101274.59
2023-02-21T17:01:33.538Z,101261.56
2023-02-21T17:04:05.803Z,101285.56
2023-02-21T17:06:34.546Z,101273.06
2023-02-21T17:09:02.394Z,101282.09
2023-02-21T17:11:32.090Z,101291.13
2023-02-21T17:14:00.109Z,101300.81
2023-02-21T17:16:30.106Z,101305.34
2023-02-21T17:18:57.738Z,101291.41
2023-02-21T17:21:25.345Z,101294.13
2023-02-21T17:23:54.331Z,101298.63
2023-02-21T17:26:22.181Z,101306.31
2023-02-21T17:28:50.766Z,101287.34
2023-02-21T17:31:19.302Z,101304.03
2023-02-21T17:33:47.132Z,101306.66
2023-02-21T17:44:00.769Z,101278.44
2023-02-21T17:46:43.727Z,101249.31
2023-02-21T17:49:20.823Z,101325.19
2023-02-21T17:52:45.785Z,101309.84
2023-02-21T17:55:26.497Z,101316.66
2023-02-21T17:57:54.445Z,101315.63
2023-02-21T18:00:28.434Z,101289.44
2023-02-21T18:03:15.047Z,101214.63
2023-02-21T18:05:42.967Z,101310.34
2023-02-21T18:08:10.624Z,101298.59
2023-02-21T18:10:48.278Z,101267.28
2023-02-21T18:17:36.505Z,101340.44
2023-02-21T18:20:25.098Z,101277.94
2023-02-21T18:23:39.556Z,101199.75
2023-02-21T18:26:59.601Z,101245.94
2023-02-21T18:30:55.062Z,101158.13
2023-02-21T18:33:27.028Z,101344.41
2023-02-21T18:35:56.982Z,101343.16
2023-02-21T18:38:25.972Z,101348.03
2023-02-21T18:40:56.653Z,101271.28
2023-02-21T18:43:36.620Z,101199.84
2023-02-21T18:47:08.323Z,101261.13
2023-02-21T18:50:03.727Z,101321.44
2023-02-21T18:52:38.995Z,101287.94
2023-02-21T18:55:27.921Z,101240.00
2023-02-21T18:58:02.934Z,101343.31
2023-02-21T19:00:33.832Z,101346.66
2023-02-21T19:03:12.233Z,101343.16
2023-02-21T19:06:03.918Z,101174.88
2023-02-21T19:08:36.585Z,101272.13
2023-02-21T19:11:10.745Z,101365.19
2023-02-21T19:13:49.637Z,101362.16
2023-02-21T19:16:27.775Z,101238.69
2023-02-21T19:19:00.133Z,101247.16
2023-02-21T19:21:29.261Z,101251.78
2023-02-21T19:23:57.817Z,101259.66
2023-02-21T19:26:30.224Z,101299.81
2023-02-21T19:29:40.965Z,101178.63
2023-02-21T19:32:24.738Z,101294.63
2023-02-21T19:34:54.570Z,101401.00
2023-02-21T19:37:28.673Z,101241.69
2023-02-21T19:40:24.868Z,101382.25
2023-02-21T19:42:58.949Z,101325.16
2023-02-21T19:45:35.624Z,101358.19
2023-02-21T19:48:03.806Z,101390.88
2023-02-21T19:50:34.230Z,101383.31
2023-02-21T19:53:06.146Z,101266.16
2023-02-21T19:55:34.934Z,101342.50
2023-02-21T19:58:07.018Z,101391.22
2023-02-21T20:00:41.227Z,101287.34
2023-02-21T20:03:20.190Z,101218.06
2023-02-21T20:05:49.075Z,101404.72
2023-02-21T20:08:16.882Z,101302.41
2023-02-21T20:10:44.452Z,101381.38
2023-02-21T20:13:18.279Z,101407.22
2023-02-21T20:15:58.122Z,101425.81
2023-02-21T20:19:00.722Z,101412.28
2023-02-21T20:21:31.454Z,101349.09
2023-02-21T20:24:00.126Z,101393.13
2023-02-21T20:26:31.059Z,101410.25
2023-02-21T20:29:01.192Z,101417.19
2023-02-21T20:31:39.526Z,101407.78
2023-02-21T20:34:30.898Z,101372.69
2023-02-21T20:37:01.989Z,101271.19
2023-02-21T20:39:49.855Z,101284.25
2023-02-21T20:42:22.748Z,101440.13
2023-02-21T20:44:53.450Z,101276.97
2023-02-21T20:47:23.603Z,101341.09
2023-02-21T20:49:51.639Z,101411.75
2023-02-21T20:52:19.165Z,101391.28
2023-02-21T20:54:50.585Z,101415.38
2023-02-21T20:57:26.936Z,101375.22
2023-02-21T20:59:55.329Z,101338.47
2023-02-21T21:02:24.520Z,101419.13
2023-02-21T21:04:54.424Z,101398.50
2023-02-21T21:07:24.390Z,101401.41
2023-02-21T21:09:54.457Z,101402.38
2023-02-21T21:12:26.349Z,101321.13
2023-02-21T21:14:59.099Z,101399.25
2023-02-21T21:17:31.891Z,101353.22
2023-02-21T21:20:17.576Z,101429.16
2023-02-21T21:22:48.483Z,101353.59
2023-02-21T21:25:17.259Z,101312.34
2023-02-21T21:27:45.253Z,101326.66
2023-02-21T21:30:18.343Z,101404.97
2023-02-21T21:32:46.526Z,101390.72
2023-02-21T21:35:17.149Z,101406.34
2023-02-21T21:37:44.914Z,101404.75
2023-02-21T21:40:16.567Z,101263.88
2023-02-21T21:42:49.732Z,101398.91
2023-02-21T21:45:25.620Z,101412.41
2023-02-21T21:47:59.638Z,101414.81
2023-02-21T21:50:30.830Z,101412.66
2023-02-21T21:52:59.060Z,101350.81
2023-02-21T21:55:29.939Z,101353.94
2023-02-21T21:57:58.867Z,101400.47
2023-02-21T22:00:29.898Z,101413.97
2023-02-21T22:03:01.819Z,101401.41
2023-02-21T22:05:31.685Z,101408.38
2023-02-21T22:07:59.592Z,101424.91
2023-02-21T22:10:28.598Z,101424.03
2023-02-21T22:13:00.603Z,101422.50
2023-02-21T22:18:51.032Z,101421.34
2023-02-21T22:21:23.441Z,101426.22
2023-02-21T22:23:56.199Z,101434.00
2023-02-21T22:26:25.642Z,101381.66
2023-02-21T22:28:54.022Z,101400.06
2023-02-21T22:31:27.432Z,101398.25
2023-02-21T22:33:59.126Z,101425.06
2023-02-21T22:36:31.617Z,101390.41
2023-02-21T22:39:09.264Z,101438.69
2023-02-21T22:41:37.501Z,101406.09
2023-02-21T22:44:05.040Z,101431.97
2023-02-21T22:46:49.041Z,101434.63
2023-02-21T22:49:16.817Z,101425.91
2023-02-21T22:51:44.898Z,101431.34
2023-02-21T22:54:14.237Z,101416.66
2023-02-21T22:56:51.154Z,101432.72
2023-02-21T22:59:24.164Z,101431.56
2023-02-21T23:01:54.397Z,101415.03
2023-02-21T23:04:28.170Z,101408.00
2023-02-21T23:07:00.439Z,101399.84
2023-02-21T23:09:30.381Z,101399.44
2023-02-21T23:12:00.553Z,101419.25
2023-02-21T23:14:31.479Z,101399.81
2023-02-21T23:16:59.587Z,101409.28
2023-02-21T23:19:29.351Z,101415.00
2023-02-21T23:21:57.879Z,101400.91
2023-02-21T23:24:26.066Z,101419.56
2023-02-21T23:26:54.637Z,101389.50
2023-02-21T23:29:26.052Z,101416.53
2023-02-21T23:32:09.515Z,101369.75
2023-02-21T23:34:41.056Z,101412.31
2023-02-21T23:37:12.393Z,101329.56
2023-02-21T23:39:41.965Z,101393.78
2023-02-21T23:42:11.143Z,101412.09
2023-02-21T23:44:39.326Z,101398.88
2023-02-21T23:47:07.059Z,101414.97
2023-02-21T23:49:34.795Z,101385.28
2023-02-21T23:52:02.629Z,101367.09
2023-02-21T23:54:30.384Z,101353.63
2023-02-21T23:57:00.536Z,101404.53
2023-02-21T23:59:29.000Z,101400.81
